createdAt,value
2022-12-24T00:00:07.556Z,81.35
2022-12-24T00:02:34.677Z,86.38
2022-12-24T00:05:01.800Z,80.07
2022-12-24T00:07:29.565Z,81.93
2022-12-24T00:09:56.500Z,83.70
2022-12-24T00:12:23.627Z,81.60
2022-12-24T00:14:50.361Z,82.00
2022-12-24T00:17:17.276Z,78.82
2022-12-24T00:19:44.098Z,83.20
2022-12-24T00:22:10.871Z,83.80
2022-12-24T00:24:37.847Z,84.20
2022-12-24T00:27:05.970Z,86.55
2022-12-24T00:29:33.789Z,82.50
2022-12-24T00:32:00.736Z,81.75
2022-12-24T00:34:27.837Z,71.28
2022-12-24T00:36:54.689Z,76.97
2022-12-24T00:39:21.580Z,81.15
2022-12-24T00:41:48.416Z,79.28
2022-12-24T00:44:15.248Z,78.88
2022-12-24T00:46:42.632Z,74.72
2022-12-24T00:49:11.559Z,85.50
2022-12-24T00:51:38.631Z,81.03
2022-12-24T00:54:06.060Z,82.90
2022-12-24T00:56:33.543Z,79.95
2022-12-24T00:59:00.344Z,77.00
2022-12-24T01:01:27.970Z,80.70
2022-12-24T01:04:15.341Z,75.72
2022-12-24T01:06:42.112Z,83.32
2022-12-24T01:09:08.964Z,82.18
2022-12-24T01:11:35.885Z,80.05
2022-12-24T01:14:02.761Z,79.07
2022-12-24T01:16:29.594Z,73.60
2022-12-24T01:18:56.444Z,73.97
2022-12-24T01:21:23.261Z,78.50
2022-12-24T01:23:50.033Z,76.60
2022-12-24T01:26:16.922Z,82.05
2022-12-24T01:28:43.711Z,71.60
2022-12-24T01:31:16.206Z,83.60
2022-12-24T01:33:44.030Z,74.55
2022-12-24T01:36:12.159Z,74.07
2022-12-24T01:38:39.508Z,75.00
2022-12-24T01:41:25.072Z,73.60
2022-12-24T01:43:51.906Z,77.77
2022-12-24T01:46:29.439Z,77.28
2022-12-24T01:49:02.532Z,68.35
2022-12-24T01:51:42.831Z,78.93
2022-12-24T01:54:17.424Z,76.25
2022-12-24T01:57:03.655Z,74.88
2022-12-24T02:01:57.953Z,72.45
2022-12-24T02:04:42.861Z,76.25
2022-12-24T02:07:09.823Z,76.78
2022-12-24T02:09:37.137Z,77.55
2022-12-24T02:12:06.058Z,71.45
2022-12-24T02:14:34.066Z,75.38
2022-12-24T02:17:39.489Z,77.25
2022-12-24T02:20:27.747Z,69.60
2022-12-24T02:23:03.189Z,74.95
2022-12-24T02:26:00.278Z,71.28
2022-12-24T02:28:45.965Z,71.80
2022-12-24T02:31:20.694Z,71.25
2022-12-24T02:34:07.910Z,69.40
2022-12-24T02:36:49.856Z,66.60
2022-12-24T02:39:27.345Z,70.40
2022-12-24T02:42:06.915Z,73.50
2022-12-24T02:44:42.743Z,71.93
2022-12-24T02:47:11.191Z,67.28
2022-12-24T02:49:38.578Z,67.25
2022-12-24T02:52:05.547Z,63.55
2022-12-24T02:54:32.982Z,70.28
2022-12-24T02:57:23.316Z,68.88
2022-12-24T03:00:00.667Z,65.53
2022-12-24T03:02:58.406Z,66.65
2022-12-24T03:05:31.195Z,67.15
2022-12-24T03:08:06.598Z,70.22
2022-12-24T03:10:56.332Z,68.75
2022-12-24T03:13:24.569Z,69.47
2022-12-24T03:15:52.184Z,66.88
2022-12-24T03:18:23.436Z,65.15
2022-12-24T03:21:00.688Z,65.13
2022-12-24T03:23:28.078Z,68.63
2022-12-24T03:25:55.161Z,62.67
2022-12-24T03:28:27.169Z,73.07
2022-12-24T03:30:54.734Z,71.45
2022-12-24T03:33:21.631Z,73.85
2022-12-24T03:35:48.647Z,69.38
2022-12-24T03:38:15.427Z,64.30
2022-12-24T03:40:42.190Z,67.82
2022-12-24T03:43:08.961Z,62.42
2022-12-24T03:45:35.828Z,62.38
2022-12-24T03:48:02.665Z,64.90
2022-12-24T03:50:29.439Z,63.28
2022-12-24T03:52:56.290Z,63.85
2022-12-24T03:55:23.579Z,63.25
2022-12-24T03:57:50.723Z,63.20
2022-12-24T04:00:18.108Z,64.55
2022-12-24T04:02:45.034Z,67.55
2022-12-24T04:05:15.721Z,65.82
2022-12-24T04:07:42.483Z,64.40
2022-12-24T04:10:10.175Z,65.18
2022-12-24T04:12:38.123Z,73.30
2022-12-24T04:15:05.410Z,66.47
2022-12-24T04:17:32.843Z,64.75
2022-12-24T04:19:59.697Z,61.97
2022-12-24T04:22:26.738Z,65.80
2022-12-24T04:24:53.495Z,66.88
2022-12-24T04:27:22.043Z,64.85
2022-12-24T04:29:52.025Z,70.00
2022-12-24T04:32:18.841Z,64.63
2022-12-24T04:34:45.647Z,71.82
2022-12-24T04:37:13.011Z,70.55
2022-12-24T04:39:39.793Z,66.63
2022-12-24T04:42:06.614Z,64.65
2022-12-24T04:44:33.354Z,64.60
2022-12-24T04:47:00.152Z,59.90
2022-12-24T04:49:26.985Z,65.90
2022-12-24T04:51:53.775Z,65.78
2022-12-24T04:54:21.024Z,63.25
2022-12-24T04:56:47.831Z,63.88
2022-12-24T04:59:15.273Z,65.28
2022-12-24T05:01:42.155Z,68.13
2022-12-24T05:04:09.843Z,69.93
2022-12-24T05:06:39.107Z,67.03
2022-12-24T05:09:05.918Z,63.58
2022-12-24T05:11:32.732Z,68.95
2022-12-24T05:13:59.540Z,63.97
2022-12-24T05:16:26.540Z,69.10
2022-12-24T05:18:54.354Z,66.53
2022-12-24T05:21:23.337Z,68.22
2022-12-24T05:24:09.332Z,69.10
2022-12-24T05:26:49.639Z,72.43
2022-12-24T05:29:16.724Z,67.53
2022-12-24T05:31:45.206Z,67.47
2022-12-24T05:34:13.816Z,64.85
2022-12-24T05:36:41.074Z,66.03
2022-12-24T05:39:13.498Z,61.38
2022-12-24T05:41:42.481Z,66.85
2022-12-24T05:44:09.292Z,67.32
2022-12-24T05:46:36.200Z,66.32
2022-12-24T05:49:03.054Z,65.93
2022-12-24T05:51:29.807Z,65.53
2022-12-24T05:53:56.592Z,76.60
2022-12-24T05:56:24.626Z,69.95
2022-12-24T05:58:53.579Z,68.22
2022-12-24T06:01:22.285Z,68.68
2022-12-24T06:03:51.959Z,64.03
2022-12-24T06:06:22.249Z,62.50
2022-12-24T06:08:50.552Z,68.22
2022-12-24T06:11:19.976Z,63.95
2022-12-24T06:13:46.870Z,64.70
2022-12-24T06:16:17.372Z,71.95
2022-12-24T06:18:44.681Z,67.07
2022-12-24T06:21:12.322Z,73.95
2022-12-24T06:23:40.747Z,70.00
2022-12-24T06:26:09.206Z,73.78
2022-12-24T06:28:37.985Z,73.40
2022-12-24T06:31:06.084Z,76.53
2022-12-24T06:33:34.460Z,80.55
2022-12-24T06:36:01.944Z,79.30
2022-12-24T06:38:31.248Z,78.60
2022-12-24T06:40:58.336Z,80.50
2022-12-24T06:43:25.429Z,86.82
2022-12-24T06:45:53.508Z,79.75
2022-12-24T06:48:20.312Z,81.10
2022-12-24T06:50:47.137Z,77.95
2022-12-24T06:53:13.929Z,75.32
2022-12-24T06:55:41.232Z,77.45
2022-12-24T06:58:07.991Z,72.70
2022-12-24T07:00:34.765Z,73.75
2022-12-24T07:03:01.682Z,77.45
2022-12-24T07:05:28.560Z,69.75
2022-12-24T07:07:55.629Z,72.80
2022-12-24T07:10:22.756Z,79.97
2022-12-24T07:12:49.674Z,81.43
2022-12-24T07:15:17.033Z,78.78
2022-12-24T07:17:44.163Z,69.22
2022-12-24T07:20:14.729Z,74.15
2022-12-24T07:22:42.044Z,80.95
2022-12-24T07:25:09.778Z,72.50
2022-12-24T07:27:37.160Z,71.25
2022-12-24T07:30:05.441Z,67.50
2022-12-24T07:32:32.424Z,69.28
2022-12-24T07:34:59.193Z,73.35
2022-12-24T07:37:26.330Z,65.60
2022-12-24T07:39:53.127Z,69.30
2022-12-24T07:42:20.062Z,71.07
2022-12-24T07:44:48.144Z,65.25
2022-12-24T07:47:15.249Z,69.25
2022-12-24T07:49:42.020Z,67.57
2022-12-24T07:52:08.785Z,63.05
2022-12-24T07:54:35.618Z,65.35
2022-12-24T07:57:02.346Z,68.65
2022-12-24T07:59:29.087Z,64.00
2022-12-24T08:01:55.994Z,67.32
2022-12-24T08:04:22.817Z,70.45
2022-12-24T08:06:49.979Z,67.18
2022-12-24T08:09:17.020Z,71.00
2022-12-24T08:11:51.318Z,66.13
2022-12-24T08:14:18.641Z,68.03
2022-12-24T08:16:45.426Z,65.35
2022-12-24T08:19:12.263Z,70.47
2022-12-24T08:21:39.067Z,72.88
2022-12-24T08:24:06.326Z,73.38
2022-12-24T08:26:33.110Z,71.82
2022-12-24T08:28:59.945Z,70.57
2022-12-24T08:31:26.816Z,72.00
2022-12-24T08:33:53.687Z,73.97
2022-12-24T08:36:20.567Z,72.60
2022-12-24T08:38:47.460Z,73.75
2022-12-24T08:41:14.192Z,84.55
2022-12-24T08:43:40.943Z,78.90
2022-12-24T08:46:07.762Z,75.53
2022-12-24T08:48:35.193Z,75.43
2022-12-24T08:51:09.544Z,78.60
2022-12-24T08:53:36.740Z,75.90
2022-12-24T08:56:05.207Z,79.47
2022-12-24T08:58:32.734Z,70.63
2022-12-24T09:01:00.254Z,71.97
2022-12-24T09:03:28.183Z,74.97
2022-12-24T09:05:55.438Z,90.43
2022-12-24T09:08:22.468Z,97.05
2022-12-24T09:10:49.247Z,99.53
2022-12-24T09:13:16.041Z,99.03
2022-12-24T09:15:42.790Z,106.30
2022-12-24T09:18:10.606Z,97.45
2022-12-24T09:20:39.462Z,105.85
2022-12-24T09:23:08.264Z,114.75
2022-12-24T09:25:35.013Z,109.53
2022-12-24T09:28:01.945Z,109.30
2022-12-24T09:30:28.651Z,115.13
2022-12-24T09:32:55.382Z,94.85
2022-12-24T09:35:22.268Z,86.47
2022-12-24T09:38:02.667Z,80.45
2022-12-24T09:40:40.067Z,85.00
2022-12-24T09:43:17.122Z,85.78
2022-12-24T09:46:00.746Z,90.57
2022-12-24T09:48:34.114Z,89.80
2022-12-24T09:51:09.013Z,88.70
2022-12-24T09:53:50.308Z,83.03
2022-12-24T09:56:28.172Z,81.95
2022-12-24T09:58:59.660Z,89.85
2022-12-24T10:01:30.265Z,84.82
2022-12-24T10:04:04.769Z,84.38
2022-12-24T10:06:47.726Z,83.80
2022-12-24T10:09:41.032Z,104.63
2022-12-24T10:12:35.920Z,122.50
2022-12-24T10:15:20.662Z,104.15
2022-12-24T10:18:16.860Z,107.85
2022-12-24T10:20:54.777Z,79.97
2022-12-24T10:23:34.303Z,83.43
2022-12-24T10:26:08.302Z,82.00
2022-12-24T10:28:55.032Z,88.45
2022-12-24T10:31:27.487Z,82.93
2022-12-24T10:34:02.107Z,87.28
2022-12-24T10:36:31.573Z,93.00
2022-12-24T10:38:58.958Z,103.63
2022-12-24T10:41:27.846Z,101.40
2022-12-24T10:43:55.577Z,92.22
2022-12-24T10:46:28.200Z,97.32
2022-12-24T10:49:04.062Z,87.65
2022-12-24T10:54:10.830Z,85.63
2022-12-24T10:56:43.281Z,92.13
2022-12-24T10:59:43.535Z,91.72
2022-12-24T11:02:38.028Z,90.35
2022-12-24T11:05:10.213Z,80.45
2022-12-24T11:07:36.917Z,88.78
2022-12-24T11:10:08.335Z,85.70
2022-12-24T11:13:00.314Z,90.80
2022-12-24T11:15:35.184Z,98.03
2022-12-24T11:18:13.362Z,79.00
2022-12-24T11:20:40.921Z,79.78
2022-12-24T11:23:16.932Z,71.43
2022-12-24T11:28:28.092Z,77.40
2022-12-24T11:31:05.311Z,78.05
2022-12-24T11:33:46.088Z,83.43
2022-12-24T11:36:14.129Z,96.07
2022-12-24T11:38:41.038Z,97.45
2022-12-24T11:41:11.957Z,88.10
2022-12-24T11:43:47.935Z,75.07
2022-12-24T11:48:44.639Z,75.10
2022-12-24T11:51:27.806Z,78.20
2022-12-24T11:54:07.300Z,74.75
2022-12-24T11:56:49.020Z,74.00
2022-12-24T11:59:26.139Z,91.30
2022-12-24T12:02:02.391Z,100.68
2022-12-24T12:04:33.090Z,93.40
2022-12-24T12:07:02.068Z,89.25
2022-12-24T12:09:31.516Z,96.32
2022-12-24T12:12:13.387Z,92.00
2022-12-24T12:14:46.623Z,105.90
2022-12-24T12:17:40.217Z,111.75
2022-12-24T12:20:28.148Z,99.45
2022-12-24T12:22:57.773Z,90.25
2022-12-24T12:25:43.042Z,77.07
2022-12-24T12:28:20.422Z,73.82
2022-12-24T12:30:55.785Z,77.82
2022-12-24T12:33:40.104Z,73.20
2022-12-24T12:36:10.443Z,77.95
2022-12-24T12:38:37.413Z,81.88
2022-12-24T12:41:05.125Z,87.03
2022-12-24T12:43:53.869Z,91.55
2022-12-24T12:46:41.923Z,91.82
2022-12-24T12:49:27.597Z,89.22
2022-12-24T12:52:32.933Z,83.07
2022-12-24T12:55:29.734Z,95.18
2022-12-24T12:58:03.143Z,93.50
2022-12-24T13:00:36.568Z,102.47
2022-12-24T13:03:15.358Z,84.40
2022-12-24T13:05:48.104Z,91.50
2022-12-24T13:08:52.694Z,94.22
2022-12-24T13:12:07.047Z,101.30
2022-12-24T13:14:51.790Z,104.65
2022-12-24T13:17:57.387Z,104.70
2022-12-24T13:20:32.525Z,119.97
2022-12-24T13:23:10.730Z,120.00
2022-12-24T13:25:38.731Z,131.52
2022-12-24T13:28:23.689Z,135.00
2022-12-24T13:31:22.940Z,152.70
2022-12-24T13:33:51.883Z,144.38
2022-12-24T13:36:20.410Z,155.77
2022-12-24T13:38:51.393Z,155.27
2022-12-24T13:41:38.607Z,139.88
2022-12-24T13:44:07.232Z,143.77
2022-12-24T13:46:49.107Z,147.30
2022-12-24T13:49:26.198Z,142.00
2022-12-24T13:52:10.932Z,142.68
2022-12-24T13:54:43.914Z,138.13
2022-12-24T13:57:38.359Z,132.98
2022-12-24T14:00:20.571Z,124.97
2022-12-24T14:02:56.391Z,124.35
2022-12-24T14:07:57.558Z,128.73
2022-12-24T14:10:30.301Z,134.65
2022-12-24T14:12:57.051Z,137.05
2022-12-24T14:15:45.593Z,136.48
2022-12-24T14:18:21.557Z,139.60
2022-12-24T14:23:44.746Z,146.88
2022-12-24T14:26:18.949Z,141.98
2022-12-24T14:28:56.307Z,140.45
2022-12-24T14:31:23.653Z,155.68
2022-12-24T14:33:50.696Z,149.70
2022-12-24T14:36:23.456Z,148.77
2022-12-24T14:38:50.583Z,154.80
2022-12-24T14:41:35.626Z,151.18
2022-12-24T14:44:28.547Z,143.90
2022-12-24T14:47:15.453Z,150.25
2022-12-24T14:50:00.315Z,147.10
2022-12-24T14:55:43.140Z,134.50
2022-12-24T14:58:30.818Z,145.80
2022-12-24T15:01:22.775Z,155.50
2022-12-24T15:04:10.714Z,147.25
2022-12-24T15:06:41.525Z,149.00
2022-12-24T15:09:25.249Z,138.55
2022-12-24T15:11:55.352Z,146.07
2022-12-24T15:14:25.063Z,140.85
2022-12-24T15:16:54.806Z,137.65
2022-12-24T15:19:35.913Z,135.82
2022-12-24T15:22:04.234Z,137.07
2022-12-24T15:24:36.748Z,136.45
2022-12-24T15:27:17.597Z,131.55
2022-12-24T15:29:46.714Z,130.45
2022-12-24T15:32:15.452Z,124.47
2022-12-24T15:34:47.560Z,132.57
2022-12-24T15:37:28.176Z,123.65
2022-12-24T15:40:04.035Z,130.65
2022-12-24T15:42:31.130Z,127.10
2022-12-24T15:45:18.051Z,132.82
2022-12-24T15:47:58.385Z,133.15
2022-12-24T15:50:34.900Z,126.22
2022-12-24T15:53:19.842Z,129.52
2022-12-24T15:56:04.962Z,128.00
2022-12-24T15:58:43.383Z,127.78
2022-12-24T16:01:13.021Z,134.50
2022-12-24T16:03:51.856Z,138.85
2022-12-24T16:06:18.955Z,135.48
2022-12-24T16:08:46.782Z,128.25
2022-12-24T16:11:24.270Z,126.53
2022-12-24T16:13:51.053Z,123.07
2022-12-24T16:16:30.447Z,138.75
2022-12-24T16:19:01.121Z,144.05
2022-12-24T16:21:32.962Z,133.32
2022-12-24T16:24:12.820Z,139.38
2022-12-24T16:26:40.355Z,137.02
2022-12-24T16:29:07.672Z,130.57
2022-12-24T16:32:00.133Z,129.95
2022-12-24T16:34:31.608Z,139.32
2022-12-24T16:36:59.918Z,140.88
2022-12-24T16:39:33.830Z,150.93
2022-12-24T16:42:21.327Z,142.95
2022-12-24T16:44:48.445Z,149.85
2022-12-24T16:47:25.500Z,149.93
2022-12-24T16:49:52.697Z,133.32
2022-12-24T16:52:22.391Z,139.77
2022-12-24T16:54:49.980Z,138.88
2022-12-24T16:57:17.101Z,115.70
2022-12-24T16:59:43.876Z,123.20
2022-12-24T17:02:18.545Z,140.38
2022-12-24T17:04:45.947Z,152.10
2022-12-24T17:07:14.662Z,152.85
2022-12-24T17:09:41.798Z,140.07
2022-12-24T17:12:08.754Z,139.20
2022-12-24T17:14:35.728Z,141.98
2022-12-24T17:17:02.536Z,139.52
2022-12-24T17:19:29.287Z,135.43
2022-12-24T17:21:56.027Z,142.52
2022-12-24T17:24:22.797Z,132.35
2022-12-24T17:26:49.554Z,139.57
2022-12-24T17:29:16.323Z,132.48
2022-12-24T17:31:43.222Z,138.35
2022-12-24T17:34:10.275Z,135.35
2022-12-24T17:36:37.018Z,132.20
2022-12-24T17:39:03.970Z,123.97
2022-12-24T17:41:30.812Z,119.68
2022-12-24T17:43:58.938Z,113.70
2022-12-24T17:46:25.929Z,110.40
2022-12-24T17:48:53.069Z,104.22
2022-12-24T17:51:23.367Z,120.65
2022-12-24T17:53:50.383Z,139.88
2022-12-24T17:56:17.698Z,151.73
2022-12-24T17:58:45.973Z,137.23
2022-12-24T18:01:18.597Z,138.82
2022-12-24T18:03:46.661Z,135.63
2022-12-24T18:06:14.043Z,135.82
2022-12-24T18:08:42.309Z,109.57
2022-12-24T18:11:23.123Z,116.80
2022-12-24T18:13:50.856Z,120.63
2022-12-24T18:16:23.371Z,117.20
2022-12-24T18:18:51.079Z,107.10
2022-12-24T18:21:19.438Z,102.75
2022-12-24T18:23:48.202Z,103.13
2022-12-24T18:26:16.144Z,105.40
2022-12-24T18:28:43.209Z,109.85
2022-12-24T18:31:13.781Z,105.18
2022-12-24T18:33:41.098Z,105.88
2022-12-24T18:36:08.666Z,112.00
2022-12-24T18:38:35.950Z,110.55
2022-12-24T18:41:07.681Z,120.68
2022-12-24T18:43:34.567Z,122.25
2022-12-24T18:46:07.907Z,116.40
2022-12-24T18:48:35.044Z,119.28
2022-12-24T18:51:02.745Z,118.32
2022-12-24T18:53:29.529Z,122.80
2022-12-24T18:55:56.397Z,126.53
2022-12-24T18:58:23.152Z,120.53
2022-12-24T19:00:49.969Z,120.97
2022-12-24T19:03:17.137Z,115.78
2022-12-24T19:05:43.934Z,114.40
2022-12-24T19:08:37.731Z,117.00
2022-12-24T19:10:57.733Z,110.75
2022-12-24T19:13:24.875Z,116.43
2022-12-24T19:15:51.767Z,101.25
2022-12-24T19:18:18.518Z,115.68
2022-12-24T19:20:45.344Z,111.57
2022-12-24T19:23:12.141Z,114.97
2022-12-24T19:25:39.059Z,119.60
2022-12-24T19:28:08.790Z,115.55
2022-12-24T19:30:40.480Z,115.88
2022-12-24T19:33:07.239Z,121.72
2022-12-24T19:35:34.112Z,109.03
2022-12-24T19:38:01.154Z,116.90
2022-12-24T19:40:28.177Z,125.45
2022-12-24T19:42:55.048Z,111.13
2022-12-24T19:45:22.877Z,120.38
2022-12-24T19:47:51.486Z,129.68
2022-12-24T19:50:19.407Z,122.78
2022-12-24T19:52:46.930Z,125.18
2022-12-24T19:55:15.117Z,166.52
2022-12-24T19:57:42.025Z,131.65
2022-12-24T20:00:10.397Z,131.25
2022-12-24T20:02:37.458Z,127.15
2022-12-24T20:05:04.791Z,125.10
2022-12-24T20:07:31.917Z,120.93
2022-12-24T20:09:58.696Z,128.65
2022-12-24T20:12:25.571Z,141.27
2022-12-24T20:14:56.421Z,143.18
2022-12-24T20:17:23.470Z,149.68
2022-12-24T20:19:50.313Z,164.77
2022-12-24T20:22:17.031Z,228.82
2022-12-24T20:24:43.849Z,174.93
2022-12-24T20:27:11.707Z,167.23
2022-12-24T20:29:38.465Z,143.00
2022-12-24T20:32:05.673Z,151.25
2022-12-24T20:34:32.586Z,155.98
2022-12-24T20:36:59.329Z,146.90
2022-12-24T20:39:26.139Z,143.68
2022-12-24T20:41:52.937Z,150.32
2022-12-24T20:44:19.806Z,139.00
2022-12-24T20:46:46.661Z,140.93
2022-12-24T20:49:13.541Z,150.43
2022-12-24T20:51:40.295Z,136.75
2022-12-24T20:54:07.046Z,133.77
2022-12-24T20:56:33.867Z,131.80
2022-12-24T20:59:01.745Z,139.95
2022-12-24T21:01:29.239Z,151.55
2022-12-24T21:03:58.653Z,145.25
2022-12-24T21:06:25.785Z,155.70
2022-12-24T21:08:53.724Z,148.35
2022-12-24T21:11:39.861Z,153.98
2022-12-24T21:14:07.331Z,170.88
2022-12-24T21:16:35.283Z,171.73
2022-12-24T21:19:02.343Z,161.63
2022-12-24T21:21:29.180Z,162.55
2022-12-24T21:23:55.991Z,167.45
2022-12-24T21:26:22.894Z,154.43
2022-12-24T21:28:50.480Z,156.48
2022-12-24T21:31:17.631Z,174.35
2022-12-24T21:33:44.625Z,136.70
2022-12-24T21:36:14.272Z,148.32
2022-12-24T21:38:41.079Z,136.93
2022-12-24T21:41:17.257Z,404.95
2022-12-24T21:43:45.126Z,142.27
2022-12-24T21:46:15.425Z,162.18
2022-12-24T21:49:01.264Z,184.95
2022-12-24T21:51:28.408Z,130.10
2022-12-24T21:54:14.342Z,222.13
2022-12-24T21:56:59.880Z,134.75
2022-12-24T21:59:27.530Z,150.90
2022-12-24T22:01:55.079Z,141.50
2022-12-24T22:04:22.307Z,193.02
2022-12-24T22:07:07.656Z,158.13
2022-12-24T22:09:53.829Z,154.77
2022-12-24T22:12:20.766Z,244.38
2022-12-24T22:14:47.735Z,338.25
2022-12-24T22:17:18.206Z,275.65
2022-12-24T22:19:48.183Z,182.35
2022-12-24T22:22:15.009Z,163.15
2022-12-24T22:24:41.785Z,134.70
2022-12-24T22:27:08.564Z,168.65
2022-12-24T22:29:35.369Z,234.25
2022-12-24T22:32:02.309Z,301.02
2022-12-24T22:34:29.183Z,174.90
2022-12-24T22:36:55.955Z,122.07
2022-12-24T22:39:22.699Z,268.08
2022-12-24T22:41:52.754Z,181.57
2022-12-24T22:44:19.593Z,215.85
2022-12-24T22:46:46.505Z,223.73
2022-12-24T22:49:13.388Z,124.78
2022-12-24T22:51:40.157Z,120.28
2022-12-24T22:54:07.047Z,159.48
2022-12-24T22:56:40.415Z,186.98
2022-12-24T22:59:09.554Z,119.20
2022-12-24T23:01:38.870Z,149.65
2022-12-24T23:04:07.299Z,269.08
2022-12-24T23:06:34.969Z,135.55
2022-12-24T23:09:02.696Z,132.25
2022-12-24T23:11:29.652Z,108.00
2022-12-24T23:14:15.279Z,102.03
2022-12-24T23:16:42.154Z,154.97
2022-12-24T23:19:09.757Z,112.82
2022-12-24T23:21:38.519Z,200.38
2022-12-24T23:24:05.770Z,222.50
2022-12-24T23:26:32.546Z,106.03
2022-12-24T23:28:59.429Z,94.97
2022-12-24T23:31:27.023Z,151.40
2022-12-24T23:33:54.046Z,158.77
2022-12-24T23:36:21.289Z,98.22
2022-12-24T23:38:48.579Z,172.45
2022-12-24T23:41:18.848Z,214.10
2022-12-24T23:43:46.039Z,101.43
2022-12-24T23:46:14.914Z,96.90
2022-12-24T23:48:42.157Z,87.90
2022-12-24T23:51:13.466Z,166.75
2022-12-24T23:53:40.283Z,89.70
2022-12-24T23:56:08.127Z,112.10
2022-12-24T23:58:35.136Z,156.18
